Time;durP1;ratioP1;P1;durP2;ratioP2;P2;SDS_P1;SDS_P2;PMS_P1;PMS_P2;Temp;Humidity;BMP_temperature;BMP_pressure;BME280_temperature;BME280_humidity;BME280_pressure;Samples;Min_cycle;Max_cycle;Signal;HPM_P1;HPM_P2
2022/02/06 00:01:00;;;;;;;12.27;3.70;;;;;;;8.92;68.44;101764.91;5025059;28;20049;-68
2022/02/06 00:03:30;;;;;;;17.50;4.30;;;;;;;9.11;67.86;101749.47;5021110;28;20049;-68
2022/02/06 00:05:58;;;;;;;;;;;;;;;9.19;67.89;101748.09;5037548;28;20053;-66
2022/02/06 00:08:25;;;;;;;13.10;3.38;;;;;;;9.14;67.26;101746.16;5037826;28;19921;-67
2022/02/06 00:10:52;;;;;;;17.33;4.05;;;;;;;9.16;67.32;101734.88;5020262;28;20041;-67
2022/02/06 00:13:19;;;;;;;17.77;3.00;;;;;;;9.04;67.49;101714.06;5033561;28;20427;-68
2022/02/06 00:15:48;;;;;;;14.73;3.50;;;;;;;9.06;67.45;101714.59;5043330;28;20045;-67
2022/02/06 00:18:15;;;;;;;12.43;3.35;;;;;;;8.87;67.82;101702.53;5025618;28;20049;-67
2022/02/06 00:20:53;;;;;;;19.25;3.10;;;;;;;9.12;68.65;101704.38;5017851;28;20042;-67
2022/02/06 00:23:24;;;;;;;15.52;2.95;;;;;;;9.10;67.80;101698.34;5031574;28;20045;-67
2022/02/06 00:26:01;;;;;;;15.20;3.20;;;;;;;9.00;68.28;101690.13;5036582;28;20061;-66
2022/02/06 00:38:03;;;;;;;13.52;2.67;;;;;;;9.36;67.69;101705.44;5008718;28;20524;-68
2022/02/06 00:39:05;;;;;;;12.63;3.70;;;;;;;9.40;68.89;101697.41;5026226;28;20065;-67
2022/02/06 00:41:36;;;;;;;15.80;3.15;;;;;;;9.16;67.76;101689.00;5002118;28;20061;-66
2022/02/06 00:44:05;;;;;;;15.07;2.65;;;;;;;9.24;67.96;101671.09;5021652;28;20058;-67
2022/02/06 00:46:38;;;;;;;9.30;2.70;;;;;;;9.10;68.28;101668.94;5018202;28;20069;-67
2022/02/06 00:49:14;;;;;;;13.18;3.22;;;;;;;9.26;67.65;101666.97;5000686;28;20049;-67
2022/02/06 00:54:10;;;;;;;15.70;3.20;;;;;;;9.20;68.40;101654.34;5031426;28;20041;-67
2022/02/06 00:56:39;;;;;;;12.90;2.97;;;;;;;9.29;68.34;101646.34;5025706;28;20065;-67
2022/02/06 00:59:06;;;;;;;11.63;2.80;;;;;;;9.12;68.02;101662.38;5035011;28;20049;-67
2022/02/06 01:01:34;;;;;;;14.90;3.15;;;;;;;9.39;70.30;101660.03;5027156;28;20428;-66
2022/02/06 01:04:01;;;;;;;10.18;3.03;;;;;;;9.61;67.91;101663.19;5015830;28;20405;-67
2022/02/06 01:06:29;;;;;;;12.77;2.78;;;;;;;9.40;69.76;101650.66;5022181;28;20046;-67
2022/02/06 01:08:56;;;;;;;14.07;3.53;;;;;;;9.41;68.10;101657.81;5008761;28;20050;-67
2022/02/06 01:11:23;;;;;;;17.33;2.92;;;;;;;9.29;68.65;101654.59;4984394;28;20045;-67
2022/02/06 01:14:01;;;;;;;9.70;2.60;;;;;;;9.25;69.02;101665.31;5021165;28;20045;-67
2022/02/06 01:16:39;;;;;;;14.13;2.47;;;;;;;9.44;68.02;101660.84;4983265;28;20065;-67
2022/02/06 01:19:18;;;;;;;15.75;2.85;;;;;;;9.17;68.89;101656.84;5033502;28;20062;-66
2022/02/06 01:21:59;;;;;;;12.30;2.70;;;;;;;9.33;68.12;101650.19;5021687;28;20057;-63
2022/02/06 01:25:17;;;;;;;13.98;2.65;;;;;;;9.21;68.13;101664.22;5024655;28;20050;-64
2022/02/06 01:27:19;;;;;;;11.95;2.67;;;;;;;9.04;69.29;101659.09;5005572;28;20058;-63
2022/02/06 01:29:56;;;;;;;12.63;3.13;;;;;;;9.24;68.87;101646.38;5028096;28;20049;-63
2022/02/06 01:32:32;;;;;;;13.80;2.70;;;;;;;9.17;68.32;101645.84;5037041;28;20053;-63
2022/02/06 01:35:10;;;;;;;12.05;2.83;;;;;;;8.92;69.19;101649.50;5018428;28;20057;-63
2022/02/06 01:37:53;;;;;;;18.95;2.55;;;;;;;8.94;69.39;101650.84;5025553;28;20053;-63
2022/02/06 01:41:24;;;;;;;16.38;3.13;;;;;;;9.22;69.33;101665.91;5036472;28;20053;-63
2022/02/06 01:43:19;;;;;;;17.02;3.25;;;;;;;8.97;69.44;101653.06;5023671;28;20069;-63
2022/02/06 02:13:44;;;;;;;12.57;2.58;;;;;;;9.45;68.15;101590.16;5008175;28;20066;-63
2022/02/06 02:46:10;;;;;;;12.07;2.47;;;;;;;9.15;69.04;101584.84;5016008;28;20537;-63
2022/02/06 02:48:41;;;;;;;8.18;2.17;;;;;;;9.26;68.43;101583.69;5030152;28;20054;-62
2022/02/06 02:51:10;;;;;;;11.73;2.30;;;;;;;9.23;68.66;101568.56;5024987;28;20053;-63
2022/02/06 02:53:47;;;;;;;13.15;2.03;;;;;;;9.69;69.54;101563.59;5029455;28;20057;-63
2022/02/06 02:59:17;;;;;;;10.13;2.50;;;;;;;9.54;68.28;101555.44;5000666;28;20069;-63
2022/02/06 03:01:59;;;;;;;7.68;2.15;;;;;;;9.32;68.14;101555.88;5015634;28;20089;-62
2022/02/06 03:04:27;;;;;;;13.32;2.67;;;;;;;9.28;69.79;101552.03;4998946;28;20746;-63
2022/02/06 03:06:54;;;;;;;11.05;2.03;;;;;;;9.20;69.45;101524.34;5034731;28;20056;-63
2022/02/06 03:09:23;;;;;;;15.20;2.55;;;;;;;9.37;69.47;101519.25;5035166;28;20037;-63
2022/02/06 03:11:50;;;;;;;10.90;2.22;;;;;;;9.57;71.29;101511.69;5009038;28;20056;-63
2022/02/06 03:14:24;;;;;;;14.57;3.25;;;;;;;9.77;70.60;101508.78;5032574;28;20050;-64
2022/02/06 03:17:02;;;;;;;11.52;2.00;;;;;;;9.77;68.44;101508.78;5025567;28;20048;-67
2022/02/06 03:19:38;;;;;;;10.13;1.92;;;;;;;9.69;68.79;101492.88;5003929;28;20065;-67
2022/02/06 03:22:06;;;;;;;7.40;2.20;;;;;;;9.54;69.77;101481.19;5015937;28;20049;-66
2022/02/06 03:24:41;;;;;;;9.45;2.20;;;;;;;9.17;70.42;101481.72;5028016;28;20053;-68
2022/02/06 03:27:08;;;;;;;10.30;2.20;;;;;;;9.22;70.96;101470.72;5027717;28;20060;-67
2022/02/06 03:29:36;;;;;;;13.50;2.35;;;;;;;9.40;71.84;101480.19;5006129;28;20057;-66
2022/02/06 03:32:03;;;;;;;13.35;2.33;;;;;;;9.67;72.06;101489.63;5004471;28;20437;-66
2022/02/06 03:34:30;;;;;;;8.98;2.20;;;;;;;9.58;70.05;101480.34;5034820;28;20401;-67
2022/02/06 03:36:58;;;;;;;11.18;2.38;;;;;;;9.61;72.25;101493.50;5019380;28;20051;-66
2022/02/06 03:39:27;;;;;;;9.20;2.10;;;;;;;9.48;71.28;101504.34;5032381;28;20061;-66
2022/02/06 03:42:07;;;;;;;8.82;2.08;;;;;;;9.44;70.88;101498.59;5004096;28;20061;-66
2022/02/06 03:44:46;;;;;;;;;;;;;;;9.16;73.12;101484.78;5023731;28;20512;-67
2022/02/06 03:47:19;;;;;;;8.63;2.10;;;;;;;9.16;73.63;101473.78;5021241;28;19921;-65
2022/02/06 03:52:15;;;;;;;7.72;2.15;;;;;;;9.44;72.46;101486.75;5024132;28;20045;-66
2022/02/06 03:54:42;;;;;;;9.30;2.22;;;;;;;9.28;72.30;101488.81;4990163;28;20079;-67
2022/02/06 03:57:09;;;;;;;15.07;2.53;;;;;;;9.44;73.83;101471.09;4999799;28;20057;-66
2022/02/06 03:59:37;;;;;;;9.35;1.95;;;;;;;9.32;71.93;101473.41;5026326;28;20042;-67
2022/02/06 04:02:05;;;;;;;14.15;2.13;;;;;;;9.37;72.23;101462.34;5034489;28;20041;-67
2022/02/06 04:04:32;;;;;;;13.68;2.95;;;;;;;9.93;71.52;101460.75;5034952;28;20049;-66
2022/02/06 04:07:06;;;;;;;9.82;2.22;;;;;;;9.63;70.94;101454.69;5034192;28;20180;-66
2022/02/06 04:09:41;;;;;;;9.77;2.22;;;;;;;9.46;72.26;101462.56;5018027;28;20061;-67
2022/02/06 04:12:11;;;;;;;9.68;2.42;;;;;;;9.40;72.78;101458.19;5018110;28;20057;-65
2022/02/06 04:14:53;;;;;;;13.45;2.30;;;;;;;9.22;72.44;101467.16;5034642;28;20045;-65
2022/02/06 04:17:25;;;;;;;10.07;2.63;;;;;;;9.16;73.58;101460.03;5025999;28;20539;-66
2022/02/06 04:19:53;;;;;;;11.38;2.15;;;;;;;9.20;73.35;101458.38;5014576;28;20060;-66
2022/02/06 04:22:21;;;;;;;16.25;2.10;;;;;;;9.41;72.46;101446.09;5014576;28;20041;-66
2022/02/06 04:24:49;;;;;;;7.53;2.10;;;;;;;9.48;73.12;101446.59;4996628;28;20064;-66
2022/02/06 04:27:18;;;;;;;9.63;2.53;;;;;;;9.36;72.96;101429.66;5015007;28;20057;-66
2022/02/06 04:29:48;;;;;;;15.50;2.50;;;;;;;9.87;72.47;101436.31;4980587;28;20449;-67
2022/02/06 04:32:16;;;;;;;11.90;2.33;;;;;;;9.61;71.39;101419.25;5008514;28;20061;-66
2022/02/06 04:34:44;;;;;;;9.95;2.28;;;;;;;9.43;72.24;101411.69;5016008;28;20436;-66
2022/02/06 04:37:29;;;;;;;14.23;2.50;;;;;;;9.85;72.19;101386.28;5015009;28;20053;-66
2022/02/06 05:15:03;;;;;;;14.05;2.45;;;;;;;9.69;74.95;101349.81;5030250;28;20050;-66
2022/02/06 05:25:39;;;;;;;9.82;1.92;;;;;;;9.51;72.68;101330.50;5028786;28;20056;-66
2022/02/06 05:30:47;;;;;;;9.43;2.13;;;;;;;9.54;73.59;101327.19;5035130;28;20053;-67
2022/02/06 05:33:16;;;;;;;11.65;2.83;;;;;;;9.57;73.93;101301.88;5036988;28;20057;-67
2022/02/06 05:35:43;;;;;;;11.02;2.30;;;;;;;9.48;72.92;101307.19;5023726;28;20382;-66
2022/02/06 05:38:10;;;;;;;13.52;2.40;;;;;;;9.58;73.95;101314.50;5033806;28;20424;-66
2022/02/06 05:40:38;;;;;;;10.70;2.20;;;;;;;9.73;73.95;101314.31;5036474;28;20132;-67
2022/02/06 05:43:05;;;;;;;9.65;2.10;;;;;;;9.43;73.25;101314.66;5036569;28;20046;-66
2022/02/06 05:45:32;;;;;;;12.52;2.50;;;;;;;9.47;73.80;101299.19;5034448;28;20058;-66
2022/02/06 05:48:00;;;;;;;9.77;2.20;;;;;;;9.49;73.28;101302.47;5035405;28;20420;-63
2022/02/06 05:50:27;;;;;;;8.43;1.90;;;;;;;9.73;72.91;101304.13;5010651;28;20058;-64
2022/02/06 05:52:55;;;;;;;9.27;2.30;;;;;;;9.54;72.76;101299.66;5027747;28;20049;-63
2022/02/06 05:55:23;;;;;;;8.32;2.30;;;;;;;9.60;72.72;101293.03;5034256;28;20060;-62
2022/02/06 05:57:50;;;;;;;13.10;2.88;;;;;;;9.62;75.02;101319.13;5048120;28;20055;-63
2022/02/06 06:00:17;;;;;;;11.00;2.75;;;;;;;9.42;73.29;101305.59;5040388;28;20503;-64
2022/02/06 06:02:45;;;;;;;10.63;1.90;;;;;;;9.68;74.82;101293.19;5024590;28;20042;-63
2022/02/06 06:05:12;;;;;;;9.52;2.60;;;;;;;9.72;73.41;101290.66;5022480;28;20057;-62
2022/02/06 06:07:42;;;;;;;8.38;2.15;;;;;;;9.24;73.93;101297.28;5036084;28;20045;-63
2022/02/06 06:10:10;;;;;;;11.30;2.60;;;;;;;9.31;74.60;101275.75;5023190;28;20061;-64
2022/02/06 06:12:38;;;;;;;13.07;2.65;;;;;;;9.32;74.44;101286.47;5036145;28;20054;-63
2022/02/06 06:15:09;;;;;;;9.85;2.47;;;;;;;9.45;75.13;101282.19;5019584;28;20050;-64
2022/02/06 06:17:38;;;;;;;8.35;1.92;;;;;;;9.50;73.92;101271.94;4994310;28;20057;-63
2022/02/06 06:20:11;;;;;;;8.77;2.25;;;;;;;9.22;75.07;101280.25;5022259;28;20500;-63
2022/02/06 06:22:39;;;;;;;12.05;2.63;;;;;;;9.52;75.09;101277.19;5023819;28;20054;-64
2022/02/06 06:25:08;;;;;;;10.43;2.13;;;;;;;9.56;75.08;101261.69;5034367;28;20496;-63
2022/02/06 06:27:35;;;;;;;14.25;2.22;;;;;;;9.53;74.40;101254.06;5035772;28;20053;-63
2022/02/06 06:30:04;;;;;;;11.40;2.38;;;;;;;9.55;74.14;101255.41;5022743;28;20045;-63
2022/02/06 06:32:32;;;;;;;9.27;2.20;;;;;;;9.89;75.61;101252.47;5035520;28;20056;-64
2022/02/06 06:35:02;;;;;;;12.75;2.15;;;;;;;9.80;74.42;101246.81;5007251;28;20056;-63
2022/02/06 06:37:29;;;;;;;;;;;;;;;9.68;74.44;101253.84;5007674;28;20531;-63
2022/02/06 06:39:57;;;;;;;11.07;2.13;;;;;;;9.47;74.84;101255.22;5016114;28;19932;-62
2022/02/06 06:42:24;;;;;;;9.55;2.45;;;;;;;9.51;75.45;101265.34;5030384;28;20060;-62
2022/02/06 06:44:52;;;;;;;8.40;2.33;;;;;;;9.52;75.13;101266.97;5026947;28;20053;-63
2022/02/06 06:47:19;;;;;;;9.32;1.90;;;;;;;9.59;75.12;101258.38;5018242;28;20077;-63
2022/02/06 06:49:47;;;;;;;7.43;2.15;;;;;;;9.78;74.81;101254.53;5026502;28;20054;-62
2022/02/06 06:52:14;;;;;;;9.38;2.15;;;;;;;9.74;74.06;101241.69;5017834;28;20405;-63
2022/02/06 06:54:46;;;;;;;8.30;1.90;;;;;;;9.61;75.12;101237.72;5028596;28;20056;-63
2022/02/06 06:57:21;;;;;;;9.27;2.28;;;;;;;9.67;75.68;101224.72;4997437;28;20061;-63
2022/02/06 07:04:53;;;;;;;8.30;1.85;;;;;;;9.73;75.34;101226.28;5028888;28;20057;-62
2022/02/06 07:07:20;;;;;;;10.68;2.08;;;;;;;9.82;74.60;101219.84;5031858;28;20053;-63
2022/02/06 07:09:47;;;;;;;11.98;2.42;;;;;;;9.69;74.53;101209.53;5041077;28;20080;-62
2022/02/06 07:12:15;;;;;;;11.57;2.08;;;;;;;9.55;75.17;101214.16;5017373;28;20382;-66
2022/02/06 07:14:46;;;;;;;11.73;1.98;;;;;;;9.54;75.63;101212.50;5028336;28;20053;-63
2022/02/06 07:17:15;;;;;;;12.75;2.22;;;;;;;9.63;75.71;101198.91;5029503;28;20037;-63
2022/02/06 07:19:43;;;;;;;12.23;2.20;;;;;;;9.63;75.69;101202.50;5009411;28;20049;-61
2022/02/06 07:22:15;;;;;;;12.02;1.85;;;;;;;9.83;75.87;101204.16;4996549;28;20058;-63
2022/02/06 07:24:44;;;;;;;8.85;1.63;;;;;;;10.07;75.05;101199.38;5015273;28;20057;-62
2022/02/06 07:27:27;;;;;;;9.52;1.67;;;;;;;9.81;75.46;101203.63;5015194;28;20136;-62
2022/02/06 07:29:58;;;;;;;9.23;1.92;;;;;;;9.62;76.50;101200.88;5027232;28;20053;-62
2022/02/06 07:32:25;;;;;;;;;;;;;;;9.77;77.01;101194.31;5028845;28;20050;-63
2022/02/06 07:34:52;;;;;;;11.40;1.90;;;;;;;10.09;77.99;101186.19;5030697;28;19925;-63
2022/02/06 07:37:19;;;;;;;13.00;2.05;;;;;;;9.83;76.76;101195.91;4999414;28;20065;-63
2022/02/06 07:39:48;;;;;;;15.40;2.20;;;;;;;9.93;77.76;101191.06;5034739;28;20041;-63
2022/02/06 07:42:15;;;;;;;9.35;1.80;;;;;;;9.87;76.32;101180.41;5016483;28;20068;-63
2022/02/06 07:44:49;;;;;;;7.38;1.35;;;;;;;9.71;77.25;101159.75;5016763;28;20225;-63
2022/02/06 07:47:23;;;;;;;10.30;2.17;;;;;;;9.34;77.40;101168.78;5016827;28;20409;-66
2022/02/06 07:49:52;;;;;;;11.30;2.13;;;;;;;9.69;77.84;101148.22;5014525;28;20052;-65
2022/02/06 07:52:21;;;;;;;9.97;2.03;;;;;;;9.89;77.48;101150.66;5030859;28;20069;-64
2022/02/06 07:54:49;;;;;;;9.25;1.98;;;;;;;9.77;75.71;101155.81;5029240;28;20045;-66
2022/02/06 07:57:17;;;;;;;7.43;1.70;;;;;;;9.96;77.13;101142.84;5006919;28;20053;-66
2022/02/06 07:59:45;;;;;;;9.35;1.85;;;;;;;10.08;75.29;101138.56;5013675;28;20049;-66
2022/02/06 08:02:12;;;;;;;14.52;6.65;;;;;;;10.18;75.00;101129.34;5015080;28;20057;-64
2022/02/06 08:04:39;;;;;;;15.00;4.22;;;;;;;10.14;74.54;101123.63;5013726;28;20045;-65
2022/02/06 08:07:07;;;;;;;7.78;1.40;;;;;;;10.11;74.30;101118.69;5034276;28;20065;-65
2022/02/06 08:12:51;;;;;;;11.40;1.80;;;;;;;10.22;75.51;101108.31;4942462;29;20062;-65
2022/02/06 08:15:19;;;;;;;8.70;2.25;;;;;;;10.41;74.21;101095.31;4991912;28;20061;-66
2022/02/06 08:17:46;;;;;;;11.63;2.85;;;;;;;10.66;74.78;101099.53;5037154;28;20050;-65
2022/02/06 08:20:15;;;;;;;7.55;1.90;;;;;;;10.62;73.12;101096.59;5025877;28;20053;-65
2022/02/06 08:22:42;;;;;;;6.68;1.77;;;;;;;10.30;73.31;101099.41;5018369;28;20049;-64
2022/02/06 08:25:11;;;;;;;9.10;1.70;;;;;;;10.20;74.75;101110.56;5024979;28;20121;-64
2022/02/06 08:27:40;;;;;;;12.55;1.60;;;;;;;10.22;75.26;101104.78;5029313;28;20053;-64
2022/02/06 08:30:09;;;;;;;7.43;1.50;;;;;;;10.43;75.50;101103.28;5024683;28;20054;-66
2022/02/06 08:32:36;;;;;;;11.00;2.03;;;;;;;10.29;75.13;101103.25;5031865;28;20053;-65
2022/02/06 08:35:04;;;;;;;8.02;1.65;;;;;;;10.18;75.78;101083.34;5015725;28;20048;-65
2022/02/06 08:37:32;;;;;;;14.20;4.45;;;;;;;10.45;76.73;101098.28;5024158;28;20054;-66
2022/02/06 08:40:06;;;;;;;15.13;5.13;;;;;;;10.52;77.11;101084.94;5013388;28;20053;-66
2022/02/06 08:42:33;;;;;;;15.15;2.75;;;;;;;10.53;76.35;101087.38;5025522;28;20061;-65
2022/02/06 08:45:00;;;;;;;11.50;1.75;;;;;;;10.29;77.02;101083.19;5035947;28;20041;-64
2022/02/06 08:47:28;;;;;;;10.00;1.80;;;;;;;10.42;77.30;101072.19;5030659;28;20128;-63
2022/02/06 08:49:56;;;;;;;7.40;2.00;;;;;;;10.28;78.39;101081.53;5018264;28;20053;-65
2022/02/06 08:52:23;;;;;;;9.93;2.10;;;;;;;10.20;77.49;101088.53;5035415;28;20049;-64
2022/02/06 08:54:50;;;;;;;10.98;2.00;;;;;;;9.93;79.23;101077.44;5037317;28;20041;-63
2022/02/06 08:57:24;;;;;;;11.35;2.00;;;;;;;10.27;79.82;101064.19;5025211;28;20053;-63
2022/02/06 08:59:56;;;;;;;7.18;1.70;;;;;;;10.23;79.91;101065.09;5026884;28;20058;-62
2022/02/06 09:02:23;;;;;;;6.80;1.55;;;;;;;10.15;79.60;101061.94;5036032;28;20056;-65
2022/02/06 09:04:51;;;;;;;11.07;2.95;;;;;;;10.29;79.40;101047.41;5028074;28;20045;-64
2022/02/06 09:07:20;;;;;;;10.68;2.05;;;;;;;10.55;80.47;101041.06;5036137;28;20053;-64
2022/02/06 09:09:55;;;;;;;9.77;2.42;;;;;;;10.34;79.08;101045.34;5023753;28;20065;-64
2022/02/06 09:12:22;;;;;;;15.50;4.50;;;;;;;10.34;79.17;101039.81;5034457;28;20049;-64
2022/02/06 09:14:50;;;;;;;8.30;1.88;;;;;;;10.37;80.57;101039.25;5029463;28;20050;-64
2022/02/06 09:17:18;;;;;;;7.78;2.15;;;;;;;10.36;80.66;101023.00;5014693;28;20481;-64
2022/02/06 09:19:46;;;;;;;8.43;1.77;;;;;;;10.67;79.72;101035.09;5010251;28;20058;-64
2022/02/06 09:22:14;;;;;;;11.82;2.10;;;;;;;10.31;80.82;101032.19;5032095;28;20049;-63
2022/02/06 09:24:42;;;;;;;11.50;2.20;;;;;;;10.55;80.84;101032.03;5043120;28;20051;-62
2022/02/06 09:27:10;;;;;;;12.05;2.95;;;;;;;10.41;80.61;101029.22;5052329;28;20049;-64
2022/02/06 09:29:38;;;;;;;12.75;4.28;;;;;;;10.44;81.12;101027.81;5026823;28;20096;-63
2022/02/06 09:37:24;;;;;;;9.20;2.00;;;;;;;10.45;80.89;101010.16;5026502;28;20045;-64
2022/02/06 09:39:51;;;;;;;12.27;4.18;;;;;;;10.53;81.13;101007.50;5023946;28;20037;-65
2022/02/06 09:42:20;;;;;;;13.27;4.68;;;;;;;10.56;81.27;101004.16;5028529;28;20617;-64
2022/02/06 09:44:48;;;;;;;18.23;4.88;;;;;;;10.69;80.41;101016.28;5025670;28;20508;-63
2022/02/06 09:47:36;;;;;;;6.63;1.65;;;;;;;10.69;81.87;101006.09;5015375;28;20041;-63
2022/02/06 09:50:04;;;;;;;8.85;1.90;;;;;;;10.61;81.48;101006.00;5033071;28;20488;-64
2022/02/06 09:52:31;;;;;;;11.68;1.90;;;;;;;10.79;81.14;100988.53;5031095;28;20624;-64
2022/02/06 09:55:03;;;;;;;7.43;2.20;;;;;;;10.81;80.96;101003.63;5001863;28;20053;-63
2022/02/06 09:57:39;;;;;;;7.68;1.98;;;;;;;10.90;82.82;100989.94;5034149;28;20404;-62
2022/02/06 10:00:08;;;;;;;10.90;1.98;;;;;;;10.84;80.51;100996.69;5016354;28;20053;-62
2022/02/06 10:02:37;;;;;;;7.65;2.75;;;;;;;10.71;81.46;100987.31;5034279;28;20503;-65
2022/02/06 10:05:06;;;;;;;6.53;2.00;;;;;;;10.80;81.06;100987.41;5001637;28;20517;-64
2022/02/06 10:07:42;;;;;;;10.88;2.30;;;;;;;10.87;81.35;100985.88;5030306;28;20645;-64
2022/02/06 10:10:12;;;;;;;8.38;2.50;;;;;;;10.84;81.77;100983.75;5027713;28;20053;-64
2022/02/06 10:12:42;;;;;;;11.05;1.67;;;;;;;10.85;80.65;100979.03;5017944;28;20079;-64
2022/02/06 10:15:14;;;;;;;6.78;1.85;;;;;;;10.81;81.86;100983.53;5033264;28;20053;-65
2022/02/06 10:17:41;;;;;;;8.35;1.98;;;;;;;10.85;80.88;100981.78;5014960;28;20049;-66
2022/02/06 10:20:14;;;;;;;8.63;1.85;;;;;;;10.97;81.65;100976.53;5032532;28;20083;-63
2022/02/06 10:25:48;;;;;;;7.60;1.55;;;;;;;10.71;81.65;100995.56;5017787;28;20053;-63
2022/02/06 10:31:03;;;;;;;8.27;2.13;;;;;;;11.00;82.39;100998.00;5045139;28;20060;-64
2022/02/06 10:33:53;;;;;;;7.95;2.20;;;;;;;10.86;81.51;100992.50;5033556;28;20053;-64
2022/02/06 10:36:28;;;;;;;8.98;1.70;;;;;;;10.79;82.09;101000.34;5017427;28;20516;-63
2022/02/06 10:39:04;;;;;;;7.57;1.98;;;;;;;11.11;80.75;100969.06;5004930;28;20049;-64
2022/02/06 10:41:32;;;;;;;6.15;1.55;;;;;;;11.36;81.40;100987.78;5017948;28;20057;-63
2022/02/06 10:44:09;;;;;;;6.35;1.75;;;;;;;11.12;81.31;100988.03;5017863;28;20058;-64
2022/02/06 10:46:47;;;;;;;8.23;1.98;;;;;;;11.05;81.80;100989.63;5013214;28;20050;-64
2022/02/06 10:49:19;;;;;;;8.95;2.05;;;;;;;10.76;81.91;100983.63;5044016;28;20049;-63
2022/02/06 10:51:53;;;;;;;11.07;1.77;;;;;;;10.66;82.89;100995.69;5031771;28;20404;-63
2022/02/06 10:54:29;;;;;;;8.90;1.85;;;;;;;10.81;83.03;100967.81;5031079;28;20049;-64
2022/02/06 10:57:01;;;;;;;8.07;1.88;;;;;;;11.22;81.77;100952.00;5016508;28;20057;-64
2022/02/06 10:59:37;;;;;;;10.45;1.88;;;;;;;11.17;80.27;100957.63;5030354;28;20062;-64
2022/02/06 11:02:26;;;;;;;7.78;1.88;;;;;;;11.33;80.22;100947.84;5014520;28;20057;-63
2022/02/06 11:05:20;;;;;;;8.23;1.63;;;;;;;11.52;80.26;100944.09;5032033;28;20048;-63
2022/02/06 11:07:54;;;;;;;11.32;2.42;;;;;;;11.06;80.10;100952.63;5024284;28;20057;-65
2022/02/06 11:10:23;;;;;;;13.98;2.50;;;;;;;11.00;81.57;100924.38;5011609;28;20052;-64
2022/02/06 11:13:05;;;;;;;10.38;2.17;;;;;;;11.11;80.95;100922.19;5016941;28;20058;-65
2022/02/06 11:15:40;;;;;;;9.25;3.05;;;;;;;12.03;80.27;100916.84;4999979;28;20056;-64
2022/02/06 11:18:17;;;;;;;8.38;2.00;;;;;;;11.78;78.17;100923.03;5032114;28;20044;-65
2022/02/06 11:21:05;;;;;;;10.10;2.90;;;;;;;11.75;78.52;100910.66;4995857;28;20045;-65
2022/02/06 11:23:38;;;;;;;13.40;2.40;;;;;;;11.64;77.74;100894.66;5028151;28;20046;-65
2022/02/06 11:26:10;;;;;;;9.60;2.90;;;;;;;11.84;78.31;100872.88;5026304;28;20042;-64
2022/02/06 11:28:38;;;;;;;9.57;3.45;;;;;;;12.13;76.78;100867.63;5027898;28;20052;-64
2022/02/06 11:31:06;;;;;;;10.23;2.60;;;;;;;11.95;77.29;100892.75;5033533;28;20057;-66
2022/02/06 11:33:34;;;;;;;10.13;3.25;;;;;;;12.31;76.77;100883.13;5016499;28;20049;-64
2022/02/06 11:36:09;;;;;;;10.90;2.30;;;;;;;11.84;75.79;100894.16;5035526;28;20041;-65
2022/02/06 11:44:52;;;;;;;11.40;2.25;;;;;;;12.18;75.98;100850.94;5030445;28;20041;-63
2022/02/06 11:47:32;;;;;;;10.88;1.77;;;;;;;11.53;76.94;100862.94;5011684;28;20046;-64
2022/02/06 11:50:06;;;;;;;14.15;2.38;;;;;;;11.82;76.36;100877.13;5015972;28;20045;-64
2022/02/06 11:52:52;;;;;;;9.30;1.70;;;;;;;11.75;76.16;100872.03;5021286;28;20052;-65
2022/02/06 11:55:31;;;;;;;9.63;1.90;;;;;;;11.74;79.35;100875.09;5043864;28;20048;-63
2022/02/06 11:58:28;;;;;;;8.90;1.70;;;;;;;11.86;78.04;100864.28;5015522;28;20050;-65
2022/02/06 12:01:07;;;;;;;8.32;1.48;;;;;;;11.50;78.08;100852.56;5037177;28;20057;-62
2022/02/06 12:03:55;;;;;;;8.38;1.73;;;;;;;11.16;80.53;100866.94;5030842;28;20404;-65
2022/02/06 12:06:37;;;;;;;9.93;1.45;;;;;;;11.16;81.04;100867.75;5036747;28;20049;-66
2022/02/06 12:09:04;;;;;;;7.40;1.90;;;;;;;11.23;82.55;100875.59;5029679;28;20053;-69
2022/02/06 12:11:34;;;;;;;7.78;2.30;;;;;;;11.21;82.21;100877.84;5037245;28;20057;-64
2022/02/06 12:14:28;;;;;;;9.10;2.08;;;;;;;11.02;82.46;100880.78;5026546;28;20057;-64
2022/02/06 12:20:01;;;;;;;8.60;2.13;;;;;;;11.11;82.14;100872.56;5022738;28;20049;-64
2022/02/06 12:22:28;;;;;;;10.25;1.52;;;;;;;11.02;82.12;100866.19;5034782;28;20049;-64
2022/02/06 12:25:18;;;;;;;8.88;1.67;;;;;;;11.19;81.52;100847.03;5017288;28;20049;-64
2022/02/06 12:27:49;;;;;;;8.73;1.55;;;;;;;11.19;81.65;100849.78;5029828;28;20057;-63
2022/02/06 12:30:26;;;;;;;5.63;1.23;;;;;;;11.52;79.72;100836.50;5028015;28;20073;-63
2022/02/06 12:33:27;;;;;;;8.20;1.10;;;;;;;11.65;79.53;100844.72;5031533;28;20057;-64
2022/02/06 12:38:44;;;;;;;8.02;1.40;;;;;;;11.64;78.87;100820.19;5034907;28;20049;-65
2022/02/06 12:41:30;;;;;;;11.07;2.47;;;;;;;11.81;79.65;100821.09;5033206;28;20084;-64
2022/02/06 12:44:04;;;;;;;7.97;1.80;;;;;;;11.82;79.15;100813.63;5034663;28;20057;-64
2022/02/06 12:46:32;;;;;;;9.18;2.05;;;;;;;11.62;79.44;100803.94;5029083;28;20052;-63
2022/02/06 12:49:03;;;;;;;5.35;1.30;;;;;;;11.78;79.34;100813.47;5035706;28;20396;-64
2022/02/06 12:51:32;;;;;;;6.03;1.40;;;;;;;11.58;79.73;100796.59;5019460;28;20412;-63
2022/02/06 12:54:09;;;;;;;6.07;1.58;;;;;;;11.81;79.67;100799.03;5014508;28;20049;-65
2022/02/06 12:56:38;;;;;;;7.55;1.63;;;;;;;11.86;78.61;100820.13;5034641;28;20481;-63
2022/02/06 12:59:06;;;;;;;6.30;1.23;;;;;;;11.85;78.42;100793.66;5025001;28;20045;-64
2022/02/06 13:01:43;;;;;;;6.70;1.55;;;;;;;11.85;78.59;100800.00;5026614;28;20049;-63
2022/02/06 13:04:13;;;;;;;9.65;1.42;;;;;;;11.69;79.11;100812.59;5018878;28;20057;-63
2022/02/06 13:06:46;;;;;;;6.68;1.40;;;;;;;11.77;79.11;100802.75;5024898;28;20064;-63
2022/02/06 13:09:19;;;;;;;8.00;1.45;;;;;;;11.57;80.29;100806.84;5018643;28;20049;-62
2022/02/06 13:11:53;;;;;;;6.75;1.25;;;;;;;11.80;80.47;100813.94;5017878;28;20053;-63
2022/02/06 13:15:34;;;;;;;9.18;1.67;;;;;;;11.58;80.50;100813.16;5015646;28;20056;-63
2022/02/06 13:20:27;;;;;;;7.63;1.60;;;;;;;11.49;83.28;100820.59;5032734;28;20052;-62
2022/02/06 13:23:07;;;;;;;7.13;1.38;;;;;;;11.56;83.61;100823.72;5005793;28;20065;-62
2022/02/06 13:28:59;;;;;;;5.28;1.65;;;;;;;11.76;83.77;100829.53;5028475;28;19928;-62
2022/02/06 13:38:55;;;;;;;7.78;1.50;;;;;;;11.40;86.19;100803.19;5027086;28;19922;-64
2022/02/06 13:41:27;;;;;;;6.07;1.60;;;;;;;11.37;86.23;100809.34;5026200;28;20038;-65
2022/02/06 13:43:56;;;;;;;4.13;1.50;;;;;;;11.46;86.74;100805.47;5023913;28;20057;-64
2022/02/06 13:46:34;;;;;;;6.25;1.23;;;;;;;11.37;87.36;100803.84;5018881;28;20049;-65
2022/02/06 13:49:02;;;;;;;5.75;1.75;;;;;;;11.38;87.63;100796.03;5013493;28;20040;-63
2022/02/06 13:51:37;;;;;;;4.50;1.38;;;;;;;11.35;88.16;100795.84;5030405;28;20045;-63
2022/02/06 13:54:06;;;;;;;4.15;1.15;;;;;;;11.31;88.30;100779.13;5015457;28;20057;-63
2022/02/06 13:56:43;;;;;;;5.28;1.30;;;;;;;11.57;88.62;100748.91;5021989;28;20046;-63
2022/02/06 13:59:14;;;;;;;4.30;1.85;;;;;;;11.66;87.83;100758.06;5019440;28;20041;-63
2022/02/06 14:01:47;;;;;;;11.93;1.92;;;;;;;11.82;86.72;100744.66;5020951;28;20060;-65
2022/02/06 14:04:27;;;;;;;8.15;1.95;;;;;;;11.61;86.70;100738.84;5024979;28;20053;-64
2022/02/06 14:07:05;;;;;;;5.00;1.60;;;;;;;11.74;86.77;100732.44;5018143;28;20048;-64
2022/02/06 14:12:17;;;;;;;7.07;1.40;;;;;;;11.66;87.03;100737.94;5029168;28;20053;-63
2022/02/06 14:15:03;;;;;;;5.85;1.48;;;;;;;11.59;86.28;100729.28;5026493;28;20068;-64
2022/02/06 14:17:38;;;;;;;6.72;1.60;;;;;;;11.74;86.31;100726.09;5028151;28;20516;-63
2022/02/06 14:20:11;;;;;;;5.38;1.60;;;;;;;11.94;85.51;100731.03;5020994;28;20065;-63
2022/02/06 14:22:44;;;;;;;6.28;1.40;;;;;;;12.05;83.74;100699.19;5027587;28;20057;-63
2022/02/06 14:25:15;;;;;;;6.80;1.45;;;;;;;12.31;83.56;100700.03;5031800;28;20260;-62
2022/02/06 14:27:43;;;;;;;7.57;1.52;;;;;;;12.12;82.83;100692.06;5024870;28;20061;-63
2022/02/06 14:30:13;;;;;;;9.27;1.58;;;;;;;12.00;83.42;100702.13;5029789;28;20440;-62
2022/02/06 14:33:02;;;;;;;4.97;1.20;;;;;;;12.00;83.52;100694.66;5028959;28;20049;-63
2022/02/06 14:35:52;;;;;;;5.30;1.13;;;;;;;11.97;83.02;100700.00;5032919;28;20061;-64